createdAt,value
2023-01-30T00:01:06.608Z,69.11
2023-01-30T00:03:34.166Z,68.88
2023-01-30T00:06:00.574Z,68.90
2023-01-30T00:08:26.983Z,69.35
2023-01-30T00:10:53.377Z,69.91
2023-01-30T00:13:19.822Z,70.58
2023-01-30T00:15:48.013Z,68.77
2023-01-30T00:18:14.421Z,68.60
2023-01-30T00:20:40.800Z,68.84
2023-01-30T00:23:07.207Z,69.02
2023-01-30T00:25:33.848Z,68.84
2023-01-30T00:28:01.950Z,68.64
2023-01-30T00:30:29.975Z,68.97
2023-01-30T00:32:58.656Z,69.08
2023-01-30T00:35:28.464Z,69.16
2023-01-30T00:37:57.724Z,69.41
2023-01-30T00:40:25.670Z,69.48
2023-01-30T00:46:03.805Z,69.75
2023-01-30T00:48:30.753Z,70.10
2023-01-30T00:50:57.207Z,70.56
2023-01-30T00:53:24.024Z,70.15
2023-01-30T00:55:51.790Z,69.38
2023-01-30T00:58:18.416Z,68.89
2023-01-30T01:00:46.286Z,68.50
2023-01-30T01:03:12.972Z,68.87
2023-01-30T01:05:40.523Z,68.37
2023-01-30T01:08:07.062Z,68.22
2023-01-30T01:10:33.952Z,68.86
2023-01-30T01:13:00.703Z,69.78
2023-01-30T01:15:27.693Z,69.71
2023-01-30T01:17:54.545Z,69.80
2023-01-30T01:20:22.250Z,70.38
2023-01-30T01:22:53.723Z,70.29
2023-01-30T01:25:20.817Z,70.25
2023-01-30T01:27:47.501Z,69.43
2023-01-30T01:30:17.074Z,69.31
2023-01-30T01:32:44.055Z,69.83
2023-01-30T01:35:10.837Z,69.88
2023-01-30T01:37:37.611Z,70.10
2023-01-30T01:40:24.569Z,70.13
2023-01-30T01:42:51.046Z,70.43
2023-01-30T01:45:23.392Z,70.77
2023-01-30T01:48:02.587Z,71.31
2023-01-30T01:50:40.238Z,70.41
2023-01-30T01:53:10.777Z,70.57
2023-01-30T01:55:39.058Z,71.40
2023-01-30T01:58:37.124Z,71.12
2023-01-30T02:01:03.859Z,70.71
2023-01-30T02:03:34.812Z,71.13
2023-01-30T02:06:03.335Z,71.33
2023-01-30T02:08:37.022Z,71.20
2023-01-30T02:11:12.419Z,71.97
2023-01-30T02:13:38.887Z,73.20
2023-01-30T02:16:07.989Z,73.83
2023-01-30T02:18:36.806Z,74.55
2023-01-30T02:21:17.223Z,74.16
2023-01-30T02:24:00.126Z,74.24
2023-01-30T02:26:54.026Z,75.60
2023-01-30T02:29:45.148Z,77.47
2023-01-30T02:36:43.954Z,79.41
2023-01-30T02:39:13.141Z,80.03
2023-01-30T02:41:55.511Z,79.94
2023-01-30T02:44:28.074Z,80.32
2023-01-30T02:47:02.764Z,80.53
2023-01-30T02:49:33.828Z,80.43
2023-01-30T02:52:02.318Z,79.93
2023-01-30T02:54:28.856Z,79.34
2023-01-30T02:56:58.492Z,78.02
2023-01-30T02:59:43.979Z,77.95
2023-01-30T03:02:39.973Z,76.64
2023-01-30T03:05:21.708Z,77.76
2023-01-30T03:07:51.093Z,79.51
2023-01-30T03:10:23.830Z,80.06
2023-01-30T03:13:14.795Z,79.72
2023-01-30T03:15:59.843Z,78.77
2023-01-30T03:18:26.360Z,78.23
2023-01-30T03:20:53.079Z,78.14
2023-01-30T03:23:19.564Z,78.30
2023-01-30T03:25:48.658Z,77.62
2023-01-30T03:28:20.480Z,77.91
2023-01-30T03:30:47.320Z,77.59
2023-01-30T03:33:14.132Z,77.14
2023-01-30T03:35:46.990Z,76.99
2023-01-30T03:38:14.641Z,78.20
2023-01-30T03:40:41.137Z,77.97
2023-01-30T03:43:08.583Z,78.06
2023-01-30T03:45:36.696Z,77.83
2023-01-30T03:48:03.316Z,77.78
2023-01-30T03:50:30.907Z,78.55
2023-01-30T03:52:57.477Z,78.11
2023-01-30T03:55:23.939Z,77.64
2023-01-30T03:57:55.216Z,77.19
2023-01-30T04:00:21.913Z,77.62
2023-01-30T04:02:50.252Z,77.72
2023-01-30T04:05:18.788Z,77.85
2023-01-30T04:07:51.806Z,77.96
2023-01-30T04:10:19.971Z,77.65
2023-01-30T04:12:47.332Z,77.32
2023-01-30T04:15:14.096Z,77.28
2023-01-30T04:17:50.528Z,76.55
2023-01-30T04:20:22.742Z,76.61
2023-01-30T04:22:54.842Z,75.99
2023-01-30T04:25:22.228Z,75.93
2023-01-30T04:27:48.757Z,76.24
2023-01-30T04:30:19.121Z,77.41
2023-01-30T04:32:47.388Z,77.16
2023-01-30T04:35:14.719Z,77.22
2023-01-30T04:37:41.297Z,76.14
2023-01-30T04:40:10.175Z,76.84
2023-01-30T04:42:36.921Z,76.47
2023-01-30T04:45:21.976Z,76.29
2023-01-30T04:47:50.398Z,75.76
2023-01-30T04:50:17.017Z,75.59
2023-01-30T04:52:43.637Z,76.42
2023-01-30T04:55:11.397Z,76.55
2023-01-30T04:57:37.884Z,77.08
2023-01-30T05:00:04.893Z,77.28
2023-01-30T05:02:33.753Z,77.28
2023-01-30T05:05:00.216Z,77.21
2023-01-30T05:07:26.624Z,77.87
2023-01-30T05:09:53.064Z,77.75
2023-01-30T05:12:19.493Z,77.78
2023-01-30T05:14:46.882Z,77.62
2023-01-30T05:17:13.412Z,77.43
2023-01-30T05:19:40.129Z,77.16
2023-01-30T05:22:06.775Z,76.62
2023-01-30T05:24:33.214Z,76.82
2023-01-30T05:26:59.677Z,76.02
2023-01-30T05:29:26.109Z,75.19
2023-01-30T05:31:52.584Z,75.31
2023-01-30T05:34:19.233Z,75.26
2023-01-30T05:36:45.764Z,75.54
2023-01-30T05:39:12.208Z,75.33
2023-01-30T05:41:38.696Z,75.29
2023-01-30T05:44:05.582Z,75.85
2023-01-30T05:46:32.171Z,76.40
2023-01-30T05:48:58.690Z,77.20
2023-01-30T05:51:26.793Z,77.35
2023-01-30T05:53:53.686Z,76.84
2023-01-30T05:56:20.383Z,77.35
2023-01-30T05:58:54.397Z,76.70
2023-01-30T06:01:22.511Z,76.12
2023-01-30T06:03:49.557Z,75.71
2023-01-30T06:06:16.205Z,76.22
2023-01-30T06:08:42.930Z,75.87
2023-01-30T06:11:14.729Z,75.58
2023-01-30T06:13:42.016Z,76.05
2023-01-30T06:16:11.863Z,75.21
2023-01-30T06:18:39.009Z,75.24
2023-01-30T06:21:05.831Z,75.34
2023-01-30T06:23:32.261Z,75.44
2023-01-30T06:25:59.213Z,75.30
2023-01-30T06:28:25.792Z,75.74
2023-01-30T06:30:52.580Z,75.70
2023-01-30T06:33:19.626Z,75.69
2023-01-30T06:35:49.404Z,75.34
2023-01-30T06:38:16.281Z,75.43
2023-01-30T06:40:45.527Z,74.89
2023-01-30T06:43:12.088Z,75.10
2023-01-30T06:45:38.512Z,75.58
2023-01-30T06:48:05.322Z,75.33
2023-01-30T06:50:32.524Z,75.14
2023-01-30T06:53:02.952Z,74.98
2023-01-30T06:55:29.687Z,75.15
2023-01-30T06:58:07.202Z,75.03
2023-01-30T07:00:34.494Z,74.82
2023-01-30T07:03:01.034Z,75.02
2023-01-30T07:05:28.990Z,75.11
2023-01-30T07:07:55.610Z,75.17
2023-01-30T07:10:22.149Z,75.22
2023-01-30T07:12:48.648Z,75.04
2023-01-30T07:15:15.214Z,75.08
2023-01-30T07:17:41.995Z,75.01
2023-01-30T07:20:10.068Z,75.07
2023-01-30T07:22:36.496Z,74.93
2023-01-30T07:25:03.120Z,74.66
2023-01-30T07:27:29.646Z,74.41
2023-01-30T07:29:56.077Z,74.86
2023-01-30T07:32:22.717Z,75.00
2023-01-30T07:34:49.189Z,74.79
2023-01-30T07:37:15.766Z,74.39
2023-01-30T07:39:42.436Z,74.55
2023-01-30T07:42:09.145Z,73.99
2023-01-30T07:44:35.587Z,74.02
2023-01-30T07:47:02.191Z,74.32
2023-01-30T07:49:28.714Z,74.36
2023-01-30T07:51:55.146Z,73.94
2023-01-30T07:54:21.572Z,73.73
2023-01-30T07:56:47.996Z,73.67
2023-01-30T07:59:14.814Z,73.81
2023-01-30T08:01:41.232Z,73.85
2023-01-30T08:04:07.710Z,73.53
2023-01-30T08:06:38.927Z,73.57
2023-01-30T08:09:06.931Z,73.54
2023-01-30T08:11:34.046Z,73.37
2023-01-30T08:14:00.583Z,73.38
2023-01-30T08:16:27.357Z,73.62
2023-01-30T08:18:54.130Z,73.79
2023-01-30T08:21:20.554Z,73.70
2023-01-30T08:23:47.025Z,73.38
2023-01-30T08:26:13.631Z,74.28
2023-01-30T08:28:40.751Z,73.91
2023-01-30T08:31:11.947Z,73.78
2023-01-30T08:33:38.787Z,73.69
2023-01-30T08:36:05.564Z,74.29
2023-01-30T08:38:32.071Z,74.16
2023-01-30T08:40:59.416Z,73.99
2023-01-30T08:43:25.886Z,74.60
2023-01-30T08:45:56.502Z,74.52
2023-01-30T08:48:23.554Z,74.70
2023-01-30T08:50:56.740Z,75.13
2023-01-30T08:53:23.299Z,74.67
2023-01-30T08:55:51.644Z,74.54
2023-01-30T08:58:18.951Z,74.83
2023-01-30T09:00:47.807Z,74.33
2023-01-30T09:03:15.772Z,74.15
2023-01-30T09:05:42.734Z,74.12
2023-01-30T09:08:09.468Z,74.71
2023-01-30T09:10:36.398Z,74.68
2023-01-30T09:13:05.275Z,74.57
2023-01-30T09:15:34.062Z,74.50
2023-01-30T09:18:00.495Z,74.68
2023-01-30T09:20:27.093Z,74.29
2023-01-30T09:22:53.638Z,74.38
2023-01-30T09:25:20.501Z,74.26
2023-01-30T09:27:50.859Z,74.18
2023-01-30T09:30:18.255Z,74.73
2023-01-30T09:32:45.166Z,75.39
2023-01-30T09:35:11.998Z,74.79
2023-01-30T09:37:38.425Z,74.81
2023-01-30T09:40:06.040Z,75.18
2023-01-30T09:43:02.025Z,74.65
2023-01-30T09:45:43.359Z,73.22
2023-01-30T09:48:18.009Z,71.90
2023-01-30T09:51:09.903Z,72.35
2023-01-30T09:53:50.277Z,71.90
2023-01-30T09:56:16.825Z,72.30
2023-01-30T09:58:51.700Z,72.02
2023-01-30T10:01:31.705Z,72.41
2023-01-30T10:04:41.968Z,71.98
2023-01-30T10:07:31.108Z,71.95
2023-01-30T10:10:24.848Z,71.72
2023-01-30T10:13:25.058Z,70.14
2023-01-30T10:16:00.788Z,68.19
2023-01-30T10:18:59.861Z,67.97
2023-01-30T10:21:59.297Z,67.35
2023-01-30T10:24:50.125Z,67.22
2023-01-30T10:27:19.219Z,67.16
2023-01-30T10:29:51.815Z,66.98
2023-01-30T10:32:31.804Z,68.11
2023-01-30T10:35:06.376Z,67.39
2023-01-30T10:37:44.464Z,66.82
2023-01-30T10:40:33.526Z,67.81
2023-01-30T10:43:07.848Z,67.10
2023-01-30T10:45:52.415Z,67.65
2023-01-30T10:48:46.673Z,68.19
2023-01-30T10:51:25.914Z,68.85
2023-01-30T10:53:59.886Z,68.38
2023-01-30T10:56:45.173Z,68.62
2023-01-30T10:59:32.244Z,68.43
2023-01-30T11:02:25.693Z,68.68
2023-01-30T11:04:59.352Z,69.62
2023-01-30T11:07:29.867Z,69.56
2023-01-30T11:09:57.956Z,69.22
2023-01-30T11:12:24.551Z,68.61
2023-01-30T11:14:53.327Z,69.03
2023-01-30T11:17:27.966Z,68.39
2023-01-30T11:19:56.664Z,67.91
2023-01-30T11:22:26.942Z,68.28
2023-01-30T11:25:06.229Z,68.17
2023-01-30T11:27:35.679Z,68.46
2023-01-30T11:30:20.104Z,68.74
2023-01-30T11:32:49.464Z,69.03
2023-01-30T11:35:15.822Z,69.78
2023-01-30T11:37:44.815Z,68.80
2023-01-30T11:40:17.646Z,67.57
2023-01-30T11:42:46.775Z,68.61
2023-01-30T11:45:17.809Z,68.83
2023-01-30T11:47:57.723Z,68.85
2023-01-30T11:50:36.541Z,68.11
2023-01-30T11:53:28.870Z,68.45
2023-01-30T11:56:05.522Z,68.60
2023-01-30T11:58:36.522Z,68.03
2023-01-30T12:01:04.047Z,66.66
2023-01-30T12:03:31.303Z,67.30
2023-01-30T12:05:58.883Z,65.94
2023-01-30T12:08:41.812Z,66.30
2023-01-30T12:11:45.150Z,66.83
2023-01-30T12:14:43.870Z,65.96
2023-01-30T12:17:21.545Z,65.70
2023-01-30T12:20:12.921Z,66.21
2023-01-30T12:22:49.703Z,66.89
2023-01-30T12:25:25.637Z,66.20
2023-01-30T12:28:03.236Z,66.38
2023-01-30T12:30:29.726Z,66.75
2023-01-30T12:35:56.580Z,67.67
2023-01-30T12:38:39.658Z,67.63
2023-01-30T12:41:48.013Z,67.84
2023-01-30T12:44:23.359Z,69.56
2023-01-30T12:47:31.804Z,69.36
2023-01-30T12:50:35.154Z,70.17
2023-01-30T12:53:18.539Z,68.89
2023-01-30T12:56:17.348Z,69.46
2023-01-30T12:59:05.463Z,68.88
2023-01-30T13:02:20.454Z,69.65
2023-01-30T13:05:11.892Z,69.87
2023-01-30T13:08:08.276Z,70.75
2023-01-30T13:11:07.843Z,71.11
2023-01-30T13:13:56.688Z,71.29
2023-01-30T13:16:27.496Z,72.06
2023-01-30T13:19:07.437Z,71.77
2023-01-30T13:21:41.393Z,70.98
2023-01-30T13:24:21.314Z,71.70
2023-01-30T13:26:49.805Z,70.57
2023-01-30T13:29:26.109Z,70.77
2023-01-30T13:31:57.190Z,69.89
2023-01-30T13:34:33.981Z,70.78
2023-01-30T13:37:04.193Z,70.80
2023-01-30T13:39:36.640Z,72.09
2023-01-30T13:42:21.028Z,72.07
2023-01-30T13:44:49.839Z,70.92
2023-01-30T13:47:40.923Z,70.77
2023-01-30T13:50:38.905Z,71.13
2023-01-30T13:53:13.547Z,71.67
2023-01-30T13:55:51.693Z,71.79
2023-01-30T13:58:43.755Z,72.49
2023-01-30T14:01:12.390Z,72.42
2023-01-30T14:03:40.772Z,72.98
2023-01-30T14:06:12.645Z,73.55
2023-01-30T14:08:45.233Z,74.44
2023-01-30T14:11:34.393Z,75.29
2023-01-30T14:14:19.789Z,75.23
2023-01-30T14:16:49.932Z,75.84
2023-01-30T14:19:34.088Z,77.19
2023-01-30T14:22:05.356Z,78.18
2023-01-30T14:24:31.841Z,77.82
2023-01-30T14:26:58.191Z,77.32
2023-01-30T14:29:42.580Z,77.58
2023-01-30T14:32:12.804Z,78.21
2023-01-30T14:34:59.204Z,78.85
2023-01-30T14:37:29.060Z,78.99
2023-01-30T14:39:57.753Z,79.58
2023-01-30T14:42:26.452Z,79.78
2023-01-30T14:44:59.121Z,79.51
2023-01-30T14:47:35.156Z,79.62
2023-01-30T14:50:20.784Z,79.24
2023-01-30T14:52:50.114Z,79.88
2023-01-30T14:55:21.247Z,79.58
2023-01-30T14:58:01.409Z,80.28
2023-01-30T15:00:32.352Z,80.30
2023-01-30T15:03:04.695Z,80.74
2023-01-30T15:05:39.968Z,81.14
2023-01-30T15:08:10.158Z,81.18
2023-01-30T15:11:03.101Z,80.68
2023-01-30T15:13:41.742Z,80.99
2023-01-30T15:16:45.755Z,80.55
2023-01-30T15:19:40.152Z,80.84
2023-01-30T15:22:46.675Z,79.88
2023-01-30T15:25:22.571Z,80.47
2023-01-30T15:28:19.741Z,80.57
2023-01-30T15:31:00.812Z,80.50
2023-01-30T15:33:31.306Z,80.33
2023-01-30T15:35:58.594Z,79.97
2023-01-30T15:38:25.294Z,80.55
2023-01-30T15:40:57.972Z,80.67
2023-01-30T15:43:59.949Z,79.95
2023-01-30T15:46:50.979Z,79.95
2023-01-30T15:49:47.351Z,80.07
2023-01-30T15:52:19.637Z,80.64
2023-01-30T15:54:51.815Z,80.30
2023-01-30T15:57:31.742Z,80.25
2023-01-30T15:59:59.124Z,80.84
2023-01-30T16:02:35.926Z,80.37
2023-01-30T16:05:26.606Z,80.15
2023-01-30T16:07:55.548Z,80.46
2023-01-30T16:10:30.370Z,80.97
2023-01-30T16:13:02.387Z,80.82
2023-01-30T16:15:38.947Z,81.55
2023-01-30T16:18:20.596Z,81.15
2023-01-30T16:21:17.080Z,81.44
2023-01-30T16:23:54.061Z,81.29
2023-01-30T16:26:21.899Z,80.94
2023-01-30T16:28:50.872Z,80.85
2023-01-30T16:31:18.521Z,81.26
2023-01-30T16:33:52.471Z,81.72
2023-01-30T16:36:21.644Z,81.05
2023-01-30T16:38:49.844Z,81.76
2023-01-30T16:41:35.689Z,81.42
2023-01-30T16:44:22.026Z,82.24
2023-01-30T16:46:55.676Z,81.56
2023-01-30T16:49:37.349Z,81.65
2023-01-30T16:52:23.044Z,81.20
2023-01-30T16:54:53.211Z,81.24
2023-01-30T16:57:38.044Z,81.30
2023-01-30T17:00:19.790Z,80.88
2023-01-30T17:02:58.112Z,81.45
2023-01-30T17:05:28.232Z,81.73
2023-01-30T17:07:56.206Z,81.57
2023-01-30T17:10:28.581Z,81.58
2023-01-30T17:12:56.825Z,81.17
2023-01-30T17:15:29.244Z,81.33
2023-01-30T17:17:55.661Z,81.51
2023-01-30T17:20:22.505Z,81.46
2023-01-30T17:22:52.392Z,81.58
2023-01-30T17:25:30.510Z,81.25
2023-01-30T17:27:58.146Z,81.15
2023-01-30T17:30:24.912Z,80.66
2023-01-30T17:32:51.348Z,81.18
2023-01-30T17:35:18.301Z,80.83
2023-01-30T17:37:46.762Z,81.33
2023-01-30T17:40:23.043Z,81.15
2023-01-30T17:42:49.483Z,81.42
2023-01-30T17:45:16.047Z,81.95
2023-01-30T17:47:42.490Z,81.51
2023-01-30T17:50:13.612Z,81.91
2023-01-30T17:52:41.733Z,82.50
2023-01-30T17:55:13.257Z,82.04
2023-01-30T17:57:48.621Z,81.53
2023-01-30T18:00:18.502Z,82.29
2023-01-30T18:02:45.664Z,82.04
2023-01-30T18:05:12.391Z,81.65
2023-01-30T18:07:40.290Z,82.02
2023-01-30T18:10:08.193Z,81.98
2023-01-30T18:12:34.638Z,81.51
2023-01-30T18:15:01.059Z,81.90
2023-01-30T18:17:28.463Z,81.72
2023-01-30T18:19:55.784Z,81.88
2023-01-30T18:22:22.598Z,82.03
2023-01-30T18:24:49.067Z,81.89
2023-01-30T18:27:15.497Z,81.98
2023-01-30T18:29:41.927Z,82.24
2023-01-30T18:32:08.353Z,82.31
2023-01-30T18:34:35.287Z,81.77
2023-01-30T18:37:01.842Z,81.49
2023-01-30T18:39:28.358Z,81.61
2023-01-30T18:41:54.832Z,81.66
2023-01-30T18:44:21.293Z,81.74
2023-01-30T18:46:50.004Z,82.10
2023-01-30T18:49:16.437Z,81.25
2023-01-30T18:51:42.856Z,81.09
2023-01-30T18:54:09.378Z,81.17
2023-01-30T18:56:36.702Z,81.96
2023-01-30T18:59:05.238Z,81.84
2023-01-30T19:01:35.497Z,81.69
2023-01-30T19:04:03.692Z,82.30
2023-01-30T19:06:30.334Z,81.82
2023-01-30T19:08:57.687Z,81.47
2023-01-30T19:11:42.769Z,81.23
2023-01-30T19:14:09.675Z,81.59
2023-01-30T19:16:37.679Z,81.94
2023-01-30T19:19:05.765Z,82.43
2023-01-30T19:21:32.303Z,81.68
2023-01-30T19:24:01.516Z,81.37
2023-01-30T19:26:28.537Z,81.45
2023-01-30T19:28:55.078Z,81.49
2023-01-30T19:31:22.438Z,80.77
2023-01-30T19:33:55.383Z,81.10
2023-01-30T19:36:23.490Z,80.62
2023-01-30T19:38:51.055Z,81.56
2023-01-30T19:41:24.325Z,81.86
2023-01-30T19:43:52.537Z,82.17
2023-01-30T19:46:19.189Z,81.68
2023-01-30T19:48:47.051Z,80.98
2023-01-30T19:51:20.770Z,81.06
2023-01-30T19:53:52.439Z,81.24
2023-01-30T19:56:21.691Z,80.99
2023-01-30T19:58:50.756Z,81.45
2023-01-30T20:01:19.481Z,81.46
2023-01-30T20:03:46.835Z,80.94
2023-01-30T20:06:24.440Z,80.34
2023-01-30T20:08:55.040Z,79.80
2023-01-30T20:11:24.057Z,80.59
2023-01-30T20:13:51.464Z,80.37
2023-01-30T20:16:21.244Z,80.77
2023-01-30T20:18:53.800Z,80.60
2023-01-30T20:21:21.565Z,80.00
2023-01-30T20:23:48.787Z,80.14
2023-01-30T20:26:21.220Z,80.13
2023-01-30T20:28:48.283Z,79.95
2023-01-30T20:31:18.399Z,80.26
2023-01-30T20:33:45.397Z,79.40
2023-01-30T20:36:14.984Z,79.80
2023-01-30T20:38:43.681Z,79.68
2023-01-30T20:41:15.562Z,80.08
2023-01-30T20:43:45.080Z,80.64
2023-01-30T20:46:29.307Z,80.58
2023-01-30T20:48:57.580Z,80.33
2023-01-30T20:51:27.105Z,79.71
2023-01-30T20:53:56.419Z,80.44
2023-01-30T20:56:24.553Z,80.34
2023-01-30T20:58:51.357Z,79.41
2023-01-30T21:01:21.350Z,79.82
2023-01-30T21:03:50.476Z,80.28
2023-01-30T21:06:41.136Z,79.48
2023-01-30T21:09:05.953Z,79.61
2023-01-30T21:11:32.476Z,79.90
2023-01-30T21:13:58.991Z,80.54
2023-01-30T21:16:28.229Z,80.63
2023-01-30T21:19:01.984Z,80.22
2023-01-30T21:21:37.111Z,79.93
2023-01-30T21:24:06.706Z,80.08
2023-01-30T21:26:35.966Z,79.63
2023-01-30T21:29:06.070Z,79.89
2023-01-30T21:31:34.347Z,79.69
2023-01-30T21:34:01.675Z,79.07
2023-01-30T21:36:28.281Z,79.40
2023-01-30T21:39:13.770Z,79.66
2023-01-30T21:42:01.045Z,79.85
2023-01-30T21:44:30.941Z,79.58
2023-01-30T21:46:58.192Z,79.91
2023-01-30T21:49:25.303Z,79.54
2023-01-30T21:51:52.453Z,79.22
2023-01-30T21:54:19.717Z,79.62
2023-01-30T21:56:46.705Z,78.84
2023-01-30T21:59:13.561Z,79.04
2023-01-30T22:01:40.849Z,79.30
2023-01-30T22:04:13.924Z,78.99
2023-01-30T22:06:41.167Z,79.42
2023-01-30T22:09:08.585Z,78.65
2023-01-30T22:11:36.472Z,79.14
2023-01-30T22:14:03.574Z,79.23
2023-01-30T22:16:30.370Z,78.86
2023-01-30T22:19:00.392Z,78.26
2023-01-30T22:21:31.555Z,77.85
2023-01-30T22:23:58.347Z,77.87
2023-01-30T22:26:26.156Z,78.18
2023-01-30T22:28:54.631Z,78.35
2023-01-30T22:31:21.330Z,78.63
2023-01-30T22:33:51.259Z,78.28
2023-01-30T22:36:17.899Z,78.51
2023-01-30T22:38:46.116Z,77.67
2023-01-30T22:41:18.329Z,77.84
2023-01-30T22:43:47.369Z,77.92
2023-01-30T22:46:15.225Z,78.04
2023-01-30T22:48:42.356Z,77.82
2023-01-30T22:51:11.883Z,77.33
2023-01-30T22:53:40.931Z,77.59
2023-01-30T22:56:10.631Z,77.95
2023-01-30T22:58:37.471Z,77.61
2023-01-30T23:01:17.890Z,77.75
2023-01-30T23:03:45.741Z,76.95
2023-01-30T23:06:15.269Z,77.96
2023-01-30T23:08:44.323Z,78.14
2023-01-30T23:11:21.035Z,77.61
2023-01-30T23:13:50.459Z,77.32
2023-01-30T23:16:19.486Z,77.24
2023-01-30T23:18:55.095Z,76.95
2023-01-30T23:21:31.771Z,77.66
2023-01-30T23:24:03.244Z,77.81
2023-01-30T23:26:33.069Z,77.37
2023-01-30T23:29:01.243Z,77.50
2023-01-30T23:31:28.991Z,77.78
2023-01-30T23:34:01.129Z,77.96
2023-01-30T23:36:28.362Z,78.11
2023-01-30T23:38:56.659Z,77.57
2023-01-30T23:41:26.386Z,77.94
2023-01-30T23:43:53.506Z,77.52
2023-01-30T23:46:21.874Z,77.93
2023-01-30T23:48:55.494Z,77.51
2023-01-30T23:51:24.205Z,77.72
2023-01-30T23:53:52.429Z,78.01
2023-01-30T23:56:20.929Z,78.05
2023-01-30T23:58:49.041Z,78.00
